sensor_id;sensor_type;location;lat;lon;timestamp;P1;durP1;ratioP1;P2;durP2;ratioP2
20649;SDS011;10484;48.736;9.332;2022-07-30T00:01:15;12.87;;;8.90;;
20649;SDS011;10484;48.736;9.332;2022-07-30T00:03:40;9.10;;;8.20;;
20649;SDS011;10484;48.736;9.332;2022-07-30T00:06:06;13.43;;;8.37;;
20649;SDS011;10484;48.736;9.332;2022-07-30T00:08:32;13.50;;;8.40;;
20649;SDS011;10484;48.736;9.332;2022-07-30T00:10:57;7.17;;;6.50;;
20649;SDS011;10484;48.736;9.332;2022-07-30T00:13:23;12.93;;;8.80;;
20649;SDS011;10484;48.736;9.332;2022-07-30T00:15:49;9.73;;;9.00;;
20649;SDS011;10484;48.736;9.332;2022-07-30T00:18:15;9.17;;;8.27;;
20649;SDS011;10484;48.736;9.332;2022-07-30T00:20:40;8.97;;;8.10;;
20649;SDS011;10484;48.736;9.332;2022-07-30T00:23:06;9.33;;;8.33;;
20649;SDS011;10484;48.736;9.332;2022-07-30T00:25:32;8.87;;;7.33;;
20649;SDS011;10484;48.736;9.332;2022-07-30T00:27:58;9.70;;;7.33;;
20649;SDS011;10484;48.736;9.332;2022-07-30T00:30:23;10.43;;;7.50;;
20649;SDS011;10484;48.736;9.332;2022-07-30T00:32:49;8.37;;;6.90;;
20649;SDS011;10484;48.736;9.332;2022-07-30T00:35:15;11.30;;;8.80;;
20649;SDS011;10484;48.736;9.332;2022-07-30T00:37:41;8.00;;;7.30;;
20649;SDS011;10484;48.736;9.332;2022-07-30T00:40:07;15.37;;;7.90;;
20649;SDS011;10484;48.736;9.332;2022-07-30T00:42:37;8.53;;;7.70;;
20649;SDS011;10484;48.736;9.332;2022-07-30T00:45:05;8.70;;;7.97;;
20649;SDS011;10484;48.736;9.332;2022-07-30T00:47:31;9.53;;;8.63;;
20649;SDS011;10484;48.736;9.332;2022-07-30T00:49:56;8.23;;;7.43;;
20649;SDS011;10484;48.736;9.332;2022-07-30T00:52:22;7.93;;;7.13;;
20649;SDS011;10484;48.736;9.332;2022-07-30T00:54:47;9.20;;;7.87;;
20649;SDS011;10484;48.736;9.332;2022-07-30T00:57:13;8.30;;;7.50;;
20649;SDS011;10484;48.736;9.332;2022-07-30T00:59:39;8.77;;;8.07;;
20649;SDS011;10484;48.736;9.332;2022-07-30T01:02:05;8.27;;;7.67;;
20649;SDS011;10484;48.736;9.332;2022-07-30T01:04:30;9.17;;;8.23;;
20649;SDS011;10484;48.736;9.332;2022-07-30T01:06:56;9.40;;;8.03;;
20649;SDS011;10484;48.736;9.332;2022-07-30T01:09:21;8.33;;;7.63;;
20649;SDS011;10484;48.736;9.332;2022-07-30T01:11:47;8.50;;;7.80;;
20649;SDS011;10484;48.736;9.332;2022-07-30T01:14:13;11.07;;;8.30;;
20649;SDS011;10484;48.736;9.332;2022-07-30T01:16:39;9.10;;;8.20;;
20649;SDS011;10484;48.736;9.332;2022-07-30T01:19:09;8.67;;;7.97;;
20649;SDS011;10484;48.736;9.332;2022-07-30T01:22:04;9.03;;;8.13;;
20649;SDS011;10484;48.736;9.332;2022-07-30T01:24:35;9.17;;;8.30;;
20649;SDS011;10484;48.736;9.332;2022-07-30T01:27:05;9.63;;;8.73;;
20649;SDS011;10484;48.736;9.332;2022-07-30T01:29:32;20.03;;;10.10;;
20649;SDS011;10484;48.736;9.332;2022-07-30T01:31:59;12.87;;;8.47;;
20649;SDS011;10484;48.736;9.332;2022-07-30T01:34:26;9.63;;;8.80;;
20649;SDS011;10484;48.736;9.332;2022-07-30T01:36:55;9.43;;;8.53;;
20649;SDS011;10484;48.736;9.332;2022-07-30T01:39:22;9.07;;;8.27;;
20649;SDS011;10484;48.736;9.332;2022-07-30T01:41:50;10.23;;;8.43;;
20649;SDS011;10484;48.736;9.332;2022-07-30T01:44:18;11.93;;;7.97;;
20649;SDS011;10484;48.736;9.332;2022-07-30T01:46:46;11.83;;;8.60;;
20649;SDS011;10484;48.736;9.332;2022-07-30T01:49:12;15.07;;;8.97;;
20649;SDS011;10484;48.736;9.332;2022-07-30T01:51:40;8.77;;;8.07;;
20649;SDS011;10484;48.736;9.332;2022-07-30T01:54:08;9.30;;;8.40;;
20649;SDS011;10484;48.736;9.332;2022-07-30T01:56:36;10.73;;;8.77;;
20649;SDS011;10484;48.736;9.332;2022-07-30T01:59:03;9.07;;;8.33;;
20649;SDS011;10484;48.736;9.332;2022-07-30T02:01:30;11.93;;;8.30;;
20649;SDS011;10484;48.736;9.332;2022-07-30T02:03:57;9.67;;;8.87;;
20649;SDS011;10484;48.736;9.332;2022-07-30T02:06:27;16.83;;;9.80;;
20649;SDS011;10484;48.736;9.332;2022-07-30T02:09:06;9.23;;;8.53;;
20649;SDS011;10484;48.736;9.332;2022-07-30T02:11:35;11.63;;;8.47;;
20649;SDS011;10484;48.736;9.332;2022-07-30T02:14:29;9.13;;;7.57;;
20649;SDS011;10484;48.736;9.332;2022-07-30T02:17:03;11.60;;;8.70;;
20649;SDS011;10484;48.736;9.332;2022-07-30T02:19:32;9.53;;;8.83;;
20649;SDS011;10484;48.736;9.332;2022-07-30T02:22:04;10.57;;;8.40;;
20649;SDS011;10484;48.736;9.332;2022-07-30T02:24:32;20.13;;;9.60;;
20649;SDS011;10484;48.736;9.332;2022-07-30T02:27:01;9.97;;;8.73;;
20649;SDS011;10484;48.736;9.332;2022-07-30T02:29:32;9.43;;;8.70;;
20649;SDS011;10484;48.736;9.332;2022-07-30T02:32:01;11.40;;;9.50;;
20649;SDS011;10484;48.736;9.332;2022-07-30T02:34:32;29.50;;;9.10;;
20649;SDS011;10484;48.736;9.332;2022-07-30T02:37:02;12.73;;;9.60;;
20649;SDS011;10484;48.736;9.332;2022-07-30T02:39:29;13.03;;;8.83;;
20649;SDS011;10484;48.736;9.332;2022-07-30T02:41:57;10.50;;;9.50;;
20649;SDS011;10484;48.736;9.332;2022-07-30T02:44:24;12.93;;;10.10;;
20649;SDS011;10484;48.736;9.332;2022-07-30T02:46:53;17.93;;;8.97;;
20649;SDS011;10484;48.736;9.332;2022-07-30T02:49:20;10.53;;;8.80;;
20649;SDS011;10484;48.736;9.332;2022-07-30T02:51:47;9.43;;;8.73;;
20649;SDS011;10484;48.736;9.332;2022-07-30T02:54:15;9.97;;;8.87;;
20649;SDS011;10484;48.736;9.332;2022-07-30T02:56:43;8.60;;;7.90;;
20649;SDS011;10484;48.736;9.332;2022-07-30T02:59:11;9.80;;;9.00;;
20649;SDS011;10484;48.736;9.332;2022-07-30T03:01:39;9.30;;;8.40;;
20649;SDS011;10484;48.736;9.332;2022-07-30T03:04:06;9.50;;;8.50;;
20649;SDS011;10484;48.736;9.332;2022-07-30T03:06:32;9.40;;;8.50;;
20649;SDS011;10484;48.736;9.332;2022-07-30T03:09:00;10.70;;;9.40;;
20649;SDS011;10484;48.736;9.332;2022-07-30T03:11:27;9.80;;;8.90;;
20649;SDS011;10484;48.736;9.332;2022-07-30T03:13:54;12.20;;;8.13;;
20649;SDS011;10484;48.736;9.332;2022-07-30T03:16:21;12.33;;;8.43;;
20649;SDS011;10484;48.736;9.332;2022-07-30T03:18:49;10.20;;;8.70;;
20649;SDS011;10484;48.736;9.332;2022-07-30T03:21:17;9.70;;;8.90;;
20649;SDS011;10484;48.736;9.332;2022-07-30T03:23:46;8.87;;;7.83;;
20649;SDS011;10484;48.736;9.332;2022-07-30T03:26:13;14.47;;;8.30;;
20649;SDS011;10484;48.736;9.332;2022-07-30T03:28:42;10.27;;;7.80;;
20649;SDS011;10484;48.736;9.332;2022-07-30T03:31:08;9.37;;;8.30;;
20649;SDS011;10484;48.736;9.332;2022-07-30T03:33:35;12.10;;;8.30;;
20649;SDS011;10484;48.736;9.332;2022-07-30T03:36:01;10.20;;;8.67;;
20649;SDS011;10484;48.736;9.332;2022-07-30T03:38:29;9.07;;;8.37;;
20649;SDS011;10484;48.736;9.332;2022-07-30T03:40:56;9.57;;;8.63;;
20649;SDS011;10484;48.736;9.332;2022-07-30T03:43:23;8.57;;;7.10;;
20649;SDS011;10484;48.736;9.332;2022-07-30T03:45:49;15.70;;;8.93;;
20649;SDS011;10484;48.736;9.332;2022-07-30T03:48:17;9.30;;;8.50;;
20649;SDS011;10484;48.736;9.332;2022-07-30T03:50:43;10.00;;;8.43;;
20649;SDS011;10484;48.736;9.332;2022-07-30T03:53:10;8.63;;;8.00;;
20649;SDS011;10484;48.736;9.332;2022-07-30T03:55:36;11.80;;;8.50;;
20649;SDS011;10484;48.736;9.332;2022-07-30T03:58:02;9.07;;;8.27;;
20649;SDS011;10484;48.736;9.332;2022-07-30T04:00:30;11.40;;;8.33;;
20649;SDS011;10484;48.736;9.332;2022-07-30T04:02:56;9.50;;;8.60;;
20649;SDS011;10484;48.736;9.332;2022-07-30T04:05:22;9.37;;;8.40;;
20649;SDS011;10484;48.736;9.332;2022-07-30T04:07:47;12.27;;;11.00;;
20649;SDS011;10484;48.736;9.332;2022-07-30T04:10:13;10.83;;;7.73;;
20649;SDS011;10484;48.736;9.332;2022-07-30T04:12:39;8.73;;;7.77;;
20649;SDS011;10484;48.736;9.332;2022-07-30T04:15:06;9.37;;;8.30;;
20649;SDS011;10484;48.736;9.332;2022-07-30T04:17:37;16.13;;;9.53;;
20649;SDS011;10484;48.736;9.332;2022-07-30T04:20:07;18.10;;;9.10;;
20649;SDS011;10484;48.736;9.332;2022-07-30T04:22:53;10.77;;;8.77;;
20649;SDS011;10484;48.736;9.332;2022-07-30T04:25:21;16.30;;;8.23;;
20649;SDS011;10484;48.736;9.332;2022-07-30T04:27:47;9.30;;;8.00;;
20649;SDS011;10484;48.736;9.332;2022-07-30T04:30:13;9.20;;;8.50;;
20649;SDS011;10484;48.736;9.332;2022-07-30T04:32:39;8.50;;;7.80;;
20649;SDS011;10484;48.736;9.332;2022-07-30T04:35:06;10.13;;;8.13;;
20649;SDS011;10484;48.736;9.332;2022-07-30T04:37:32;9.03;;;8.17;;
20649;SDS011;10484;48.736;9.332;2022-07-30T04:39:58;10.90;;;8.20;;
20649;SDS011;10484;48.736;9.332;2022-07-30T04:42:24;11.40;;;8.00;;
20649;SDS011;10484;48.736;9.332;2022-07-30T04:44:53;10.80;;;9.90;;
20649;SDS011;10484;48.736;9.332;2022-07-30T04:47:21;12.33;;;9.17;;
20649;SDS011;10484;48.736;9.332;2022-07-30T04:49:48;13.03;;;8.03;;
20649;SDS011;10484;48.736;9.332;2022-07-30T04:52:16;13.27;;;8.23;;
20649;SDS011;10484;48.736;9.332;2022-07-30T04:54:47;9.50;;;8.07;;
20649;SDS011;10484;48.736;9.332;2022-07-30T04:57:17;9.30;;;8.40;;
20649;SDS011;10484;48.736;9.332;2022-07-30T04:59:44;9.13;;;8.37;;
20649;SDS011;10484;48.736;9.332;2022-07-30T05:02:10;8.40;;;7.70;;
20649;SDS011;10484;48.736;9.332;2022-07-30T05:04:36;10.27;;;9.03;;
20649;SDS011;10484;48.736;9.332;2022-07-30T05:07:04;10.10;;;9.07;;
20649;SDS011;10484;48.736;9.332;2022-07-30T05:09:30;9.97;;;8.97;;
20649;SDS011;10484;48.736;9.332;2022-07-30T05:11:57;10.17;;;9.13;;
20649;SDS011;10484;48.736;9.332;2022-07-30T05:14:23;9.40;;;8.40;;
20649;SDS011;10484;48.736;9.332;2022-07-30T05:16:49;10.63;;;9.53;;
20649;SDS011;10484;48.736;9.332;2022-07-30T05:19:16;10.70;;;9.80;;
20649;SDS011;10484;48.736;9.332;2022-07-30T05:21:43;10.77;;;9.73;;
20649;SDS011;10484;48.736;9.332;2022-07-30T05:24:09;13.50;;;9.77;;
20649;SDS011;10484;48.736;9.332;2022-07-30T05:26:35;10.70;;;8.77;;
20649;SDS011;10484;48.736;9.332;2022-07-30T05:29:00;13.23;;;9.20;;
20649;SDS011;10484;48.736;9.332;2022-07-30T05:31:26;10.33;;;9.53;;
20649;SDS011;10484;48.736;9.332;2022-07-30T05:33:52;11.80;;;9.23;;
20649;SDS011;10484;48.736;9.332;2022-07-30T05:36:18;11.23;;;10.00;;
20649;SDS011;10484;48.736;9.332;2022-07-30T05:38:44;11.13;;;10.00;;
20649;SDS011;10484;48.736;9.332;2022-07-30T05:41:10;11.40;;;10.40;;
20649;SDS011;10484;48.736;9.332;2022-07-30T05:43:35;13.57;;;12.47;;
20649;SDS011;10484;48.736;9.332;2022-07-30T05:46:01;13.33;;;12.07;;
20649;SDS011;10484;48.736;9.332;2022-07-30T05:48:26;19.37;;;13.07;;
20649;SDS011;10484;48.736;9.332;2022-07-30T05:50:52;13.20;;;12.10;;
20649;SDS011;10484;48.736;9.332;2022-07-30T05:53:18;17.30;;;13.10;;
20649;SDS011;10484;48.736;9.332;2022-07-30T05:55:44;13.67;;;12.27;;
20649;SDS011;10484;48.736;9.332;2022-07-30T05:58:09;15.73;;;14.33;;
20649;SDS011;10484;48.736;9.332;2022-07-30T06:00:35;16.07;;;14.77;;
20649;SDS011;10484;48.736;9.332;2022-07-30T06:03:01;16.90;;;14.90;;
20649;SDS011;10484;48.736;9.332;2022-07-30T06:05:27;17.67;;;15.97;;
20649;SDS011;10484;48.736;9.332;2022-07-30T06:07:53;22.07;;;16.10;;
20649;SDS011;10484;48.736;9.332;2022-07-30T06:10:19;16.93;;;15.50;;
20649;SDS011;10484;48.736;9.332;2022-07-30T06:12:45;21.10;;;15.83;;
20649;SDS011;10484;48.736;9.332;2022-07-30T06:15:10;19.00;;;16.80;;
20649;SDS011;10484;48.736;9.332;2022-07-30T06:17:40;19.00;;;16.57;;
20649;SDS011;10484;48.736;9.332;2022-07-30T06:20:13;18.27;;;16.57;;
20649;SDS011;10484;48.736;9.332;2022-07-30T06:22:41;17.40;;;15.93;;
20649;SDS011;10484;48.736;9.332;2022-07-30T06:25:07;19.60;;;17.90;;
20649;SDS011;10484;48.736;9.332;2022-07-30T06:27:34;19.53;;;17.83;;
20649;SDS011;10484;48.736;9.332;2022-07-30T06:30:00;18.77;;;17.10;;
20649;SDS011;10484;48.736;9.332;2022-07-30T06:32:30;19.90;;;18.10;;
20649;SDS011;10484;48.736;9.332;2022-07-30T06:34:56;20.50;;;18.50;;
20649;SDS011;10484;48.736;9.332;2022-07-30T06:37:22;21.40;;;19.30;;
20649;SDS011;10484;48.736;9.332;2022-07-30T06:39:48;22.60;;;20.70;;
20649;SDS011;10484;48.736;9.332;2022-07-30T06:42:14;23.93;;;21.73;;
20649;SDS011;10484;48.736;9.332;2022-07-30T06:44:40;24.53;;;22.13;;
20649;SDS011;10484;48.736;9.332;2022-07-30T06:47:06;20.80;;;18.83;;
20649;SDS011;10484;48.736;9.332;2022-07-30T06:49:32;19.07;;;17.13;;
20649;SDS011;10484;48.736;9.332;2022-07-30T06:51:58;20.90;;;18.90;;
20649;SDS011;10484;48.736;9.332;2022-07-30T06:54:24;18.17;;;16.50;;
20649;SDS011;10484;48.736;9.332;2022-07-30T06:56:50;18.43;;;16.70;;
20649;SDS011;10484;48.736;9.332;2022-07-30T06:59:16;19.37;;;17.57;;
20649;SDS011;10484;48.736;9.332;2022-07-30T07:01:41;21.10;;;19.00;;
20649;SDS011;10484;48.736;9.332;2022-07-30T07:04:07;20.20;;;18.37;;
20649;SDS011;10484;48.736;9.332;2022-07-30T07:06:33;19.30;;;17.47;;
20649;SDS011;10484;48.736;9.332;2022-07-30T07:08:59;19.33;;;17.50;;
20649;SDS011;10484;48.736;9.332;2022-07-30T07:11:24;15.70;;;14.30;;
20649;SDS011;10484;48.736;9.332;2022-07-30T07:13:50;16.97;;;13.40;;
20649;SDS011;10484;48.736;9.332;2022-07-30T07:16:16;12.77;;;11.67;;
20649;SDS011;10484;48.736;9.332;2022-07-30T07:18:45;14.10;;;10.77;;
20649;SDS011;10484;48.736;9.332;2022-07-30T07:21:12;14.70;;;13.40;;
20649;SDS011;10484;48.736;9.332;2022-07-30T07:23:38;14.87;;;13.47;;
20649;SDS011;10484;48.736;9.332;2022-07-30T07:26:04;13.50;;;12.33;;
20649;SDS011;10484;48.736;9.332;2022-07-30T07:28:29;11.73;;;10.77;;
20649;SDS011;10484;48.736;9.332;2022-07-30T07:30:55;14.03;;;12.90;;
20649;SDS011;10484;48.736;9.332;2022-07-30T07:33:21;13.60;;;12.40;;
20649;SDS011;10484;48.736;9.332;2022-07-30T07:35:46;14.47;;;11.87;;
20649;SDS011;10484;48.736;9.332;2022-07-30T07:38:12;11.67;;;10.57;;
20649;SDS011;10484;48.736;9.332;2022-07-30T07:40:38;13.93;;;12.77;;
20649;SDS011;10484;48.736;9.332;2022-07-30T07:43:03;13.90;;;12.60;;
20649;SDS011;10484;48.736;9.332;2022-07-30T07:45:29;12.47;;;11.43;;
20649;SDS011;10484;48.736;9.332;2022-07-30T07:47:55;12.37;;;11.07;;
20649;SDS011;10484;48.736;9.332;2022-07-30T07:50:21;11.37;;;10.27;;
20649;SDS011;10484;48.736;9.332;2022-07-30T07:52:47;11.70;;;10.60;;
20649;SDS011;10484;48.736;9.332;2022-07-30T07:55:13;12.17;;;10.90;;
20649;SDS011;10484;48.736;9.332;2022-07-30T07:57:39;8.93;;;8.13;;
20649;SDS011;10484;48.736;9.332;2022-07-30T08:00:06;10.90;;;9.77;;
20649;SDS011;10484;48.736;9.332;2022-07-30T08:02:33;10.43;;;9.27;;
20649;SDS011;10484;48.736;9.332;2022-07-30T08:04:58;10.70;;;9.60;;
20649;SDS011;10484;48.736;9.332;2022-07-30T08:07:24;8.20;;;7.10;;
20649;SDS011;10484;48.736;9.332;2022-07-30T08:09:50;6.30;;;5.50;;
20649;SDS011;10484;48.736;9.332;2022-07-30T08:12:15;13.93;;;6.47;;
20649;SDS011;10484;48.736;9.332;2022-07-30T08:14:41;7.17;;;5.50;;
20649;SDS011;10484;48.736;9.332;2022-07-30T08:17:07;5.20;;;4.70;;
20649;SDS011;10484;48.736;9.332;2022-07-30T08:19:33;5.43;;;4.93;;
20649;SDS011;10484;48.736;9.332;2022-07-30T08:21:59;9.03;;;5.70;;
20649;SDS011;10484;48.736;9.332;2022-07-30T08:24:24;7.20;;;4.47;;
20649;SDS011;10484;48.736;9.332;2022-07-30T08:26:50;4.70;;;4.00;;
20649;SDS011;10484;48.736;9.332;2022-07-30T08:29:16;6.73;;;5.00;;
20649;SDS011;10484;48.736;9.332;2022-07-30T08:31:42;5.00;;;4.50;;
20649;SDS011;10484;48.736;9.332;2022-07-30T08:34:07;8.33;;;4.57;;
20649;SDS011;10484;48.736;9.332;2022-07-30T08:36:33;4.40;;;4.00;;
20649;SDS011;10484;48.736;9.332;2022-07-30T08:38:59;7.83;;;4.93;;
20649;SDS011;10484;48.736;9.332;2022-07-30T08:41:25;4.90;;;4.50;;
20649;SDS011;10484;48.736;9.332;2022-07-30T08:43:51;4.60;;;3.80;;
20649;SDS011;10484;48.736;9.332;2022-07-30T08:46:18;5.77;;;4.10;;
20649;SDS011;10484;48.736;9.332;2022-07-30T08:48:48;3.90;;;3.60;;
20649;SDS011;10484;48.736;9.332;2022-07-30T08:51:16;5.17;;;3.70;;
20649;SDS011;10484;48.736;9.332;2022-07-30T08:53:43;4.43;;;4.03;;
20649;SDS011;10484;48.736;9.332;2022-07-30T08:56:10;5.23;;;4.10;;
20649;SDS011;10484;48.736;9.332;2022-07-30T08:58:36;4.13;;;3.77;;
20649;SDS011;10484;48.736;9.332;2022-07-30T09:01:02;4.03;;;3.43;;
20649;SDS011;10484;48.736;9.332;2022-07-30T09:03:29;4.17;;;3.77;;
20649;SDS011;10484;48.736;9.332;2022-07-30T09:05:55;4.03;;;3.63;;
20649;SDS011;10484;48.736;9.332;2022-07-30T09:08:20;3.80;;;3.50;;
20649;SDS011;10484;48.736;9.332;2022-07-30T09:10:47;4.03;;;3.67;;
20649;SDS011;10484;48.736;9.332;2022-07-30T09:13:26;6.03;;;3.50;;
20649;SDS011;10484;48.736;9.332;2022-07-30T09:16:00;6.30;;;3.10;;
20649;SDS011;10484;48.736;9.332;2022-07-30T09:18:27;4.07;;;3.77;;
20649;SDS011;10484;48.736;9.332;2022-07-30T09:20:55;5.17;;;3.20;;
20649;SDS011;10484;48.736;9.332;2022-07-30T09:23:23;4.03;;;2.90;;
20649;SDS011;10484;48.736;9.332;2022-07-30T09:25:49;5.30;;;3.90;;
20649;SDS011;10484;48.736;9.332;2022-07-30T09:28:15;5.13;;;2.97;;
20649;SDS011;10484;48.736;9.332;2022-07-30T09:30:51;5.47;;;3.23;;
20649;SDS011;10484;48.736;9.332;2022-07-30T09:36:16;10.87;;;4.33;;
20649;SDS011;10484;48.736;9.332;2022-07-30T09:41:14;9.67;;;4.17;;
20649;SDS011;10484;48.736;9.332;2022-07-30T09:43:41;3.70;;;3.40;;
20649;SDS011;10484;48.736;9.332;2022-07-30T09:46:09;3.23;;;2.93;;
20649;SDS011;10484;48.736;9.332;2022-07-30T09:48:36;4.47;;;2.90;;
20649;SDS011;10484;48.736;9.332;2022-07-30T09:51:01;6.73;;;3.00;;
20649;SDS011;10484;48.736;9.332;2022-07-30T09:53:27;5.70;;;3.60;;
20649;SDS011;10484;48.736;9.332;2022-07-30T09:55:53;7.67;;;3.30;;
20649;SDS011;10484;48.736;9.332;2022-07-30T09:58:20;3.20;;;2.90;;
20649;SDS011;10484;48.736;9.332;2022-07-30T10:00:46;5.20;;;3.10;;
20649;SDS011;10484;48.736;9.332;2022-07-30T10:03:18;6.10;;;3.30;;
20649;SDS011;10484;48.736;9.332;2022-07-30T10:05:52;3.70;;;3.03;;
20649;SDS011;10484;48.736;9.332;2022-07-30T10:08:19;3.80;;;3.10;;
20649;SDS011;10484;48.736;9.332;2022-07-30T10:11:01;4.53;;;3.57;;
20649;SDS011;10484;48.736;9.332;2022-07-30T10:13:27;4.07;;;3.20;;
20649;SDS011;10484;48.736;9.332;2022-07-30T10:15:53;3.30;;;3.00;;
20649;SDS011;10484;48.736;9.332;2022-07-30T10:18:19;5.30;;;2.93;;
20649;SDS011;10484;48.736;9.332;2022-07-30T10:20:45;4.90;;;2.77;;
20649;SDS011;10484;48.736;9.332;2022-07-30T10:23:11;3.53;;;3.13;;
20649;SDS011;10484;48.736;9.332;2022-07-30T10:25:37;7.30;;;2.80;;
20649;SDS011;10484;48.736;9.332;2022-07-30T10:28:03;3.30;;;3.10;;
20649;SDS011;10484;48.736;9.332;2022-07-30T10:30:30;3.63;;;2.77;;
20649;SDS011;10484;48.736;9.332;2022-07-30T10:32:57;2.70;;;2.50;;
20649;SDS011;10484;48.736;9.332;2022-07-30T10:35:23;5.57;;;2.47;;
20649;SDS011;10484;48.736;9.332;2022-07-30T10:37:49;2.37;;;2.27;;
20649;SDS011;10484;48.736;9.332;2022-07-30T10:40:21;2.70;;;1.97;;
20649;SDS011;10484;48.736;9.332;2022-07-30T10:43:16;2.97;;;2.67;;
20649;SDS011;10484;48.736;9.332;2022-07-30T10:46:08;2.63;;;2.13;;
20649;SDS011;10484;48.736;9.332;2022-07-30T10:48:45;2.73;;;2.20;;
20649;SDS011;10484;48.736;9.332;2022-07-30T10:51:10;2.87;;;2.67;;
20649;SDS011;10484;48.736;9.332;2022-07-30T10:53:40;2.50;;;2.30;;
20649;SDS011;10484;48.736;9.332;2022-07-30T10:56:22;2.33;;;2.13;;
20649;SDS011;10484;48.736;9.332;2022-07-30T10:59:22;3.67;;;2.80;;
20649;SDS011;10484;48.736;9.332;2022-07-30T11:04:28;2.60;;;2.30;;
20649;SDS011;10484;48.736;9.332;2022-07-30T11:09:51;2.17;;;2.03;;
20649;SDS011;10484;48.736;9.332;2022-07-30T11:15:05;2.70;;;2.10;;
20649;SDS011;10484;48.736;9.332;2022-07-30T11:20:32;3.27;;;2.20;;
20649;SDS011;10484;48.736;9.332;2022-07-30T11:23:34;9.53;;;2.57;;
20649;SDS011;10484;48.736;9.332;2022-07-30T11:25:53;2.07;;;1.97;;
20649;SDS011;10484;48.736;9.332;2022-07-30T11:28:32;2.27;;;1.87;;
20649;SDS011;10484;48.736;9.332;2022-07-30T11:34:10;2.47;;;2.10;;
20649;SDS011;10484;48.736;9.332;2022-07-30T11:45:17;3.47;;;2.00;;
20649;SDS011;10484;48.736;9.332;2022-07-30T11:47:53;3.47;;;2.10;;
20649;SDS011;10484;48.736;9.332;2022-07-30T11:53:01;2.87;;;2.57;;
20649;SDS011;10484;48.736;9.332;2022-07-30T11:58:04;3.00;;;2.37;;
20649;SDS011;10484;48.736;9.332;2022-07-30T12:00:38;3.07;;;2.07;;
20649;SDS011;10484;48.736;9.332;2022-07-30T12:03:09;3.57;;;2.03;;
20649;SDS011;10484;48.736;9.332;2022-07-30T12:05:35;1.97;;;1.77;;
20649;SDS011;10484;48.736;9.332;2022-07-30T12:08:02;2.37;;;2.13;;
20649;SDS011;10484;48.736;9.332;2022-07-30T12:10:29;5.43;;;2.20;;
20649;SDS011;10484;48.736;9.332;2022-07-30T12:13:05;3.07;;;2.77;;
20649;SDS011;10484;48.736;9.332;2022-07-30T12:15:36;2.30;;;1.97;;
20649;SDS011;10484;48.736;9.332;2022-07-30T12:18:04;3.07;;;1.93;;
20649;SDS011;10484;48.736;9.332;2022-07-30T12:20:32;2.63;;;2.23;;
20649;SDS011;10484;48.736;9.332;2022-07-30T12:22:58;3.70;;;1.77;;
20649;SDS011;10484;48.736;9.332;2022-07-30T12:25:26;5.73;;;2.37;;
20649;SDS011;10484;48.736;9.332;2022-07-30T12:27:52;1.97;;;1.63;;
20649;SDS011;10484;48.736;9.332;2022-07-30T12:30:19;5.27;;;2.33;;
20649;SDS011;10484;48.736;9.332;2022-07-30T12:32:45;4.03;;;2.43;;
20649;SDS011;10484;48.736;9.332;2022-07-30T12:35:12;3.07;;;1.90;;
20649;SDS011;10484;48.736;9.332;2022-07-30T12:37:37;3.20;;;2.20;;
20649;SDS011;10484;48.736;9.332;2022-07-30T12:40:13;2.80;;;2.37;;
20649;SDS011;10484;48.736;9.332;2022-07-30T12:42:49;6.37;;;1.80;;
20649;SDS011;10484;48.736;9.332;2022-07-30T12:45:29;4.00;;;1.90;;
20649;SDS011;10484;48.736;9.332;2022-07-30T12:47:56;2.27;;;1.90;;
20649;SDS011;10484;48.736;9.332;2022-07-30T12:50:25;2.13;;;1.60;;
20649;SDS011;10484;48.736;9.332;2022-07-30T12:52:52;2.27;;;1.80;;
20649;SDS011;10484;48.736;9.332;2022-07-30T12:55:32;2.10;;;1.93;;
20649;SDS011;10484;48.736;9.332;2022-07-30T12:58:00;2.20;;;2.00;;
20649;SDS011;10484;48.736;9.332;2022-07-30T13:08:50;2.47;;;1.43;;
20649;SDS011;10484;48.736;9.332;2022-07-30T13:11:16;4.00;;;1.50;;
20649;SDS011;10484;48.736;9.332;2022-07-30T13:13:43;1.47;;;1.37;;
20649;SDS011;10484;48.736;9.332;2022-07-30T13:16:09;1.77;;;1.67;;
20649;SDS011;10484;48.736;9.332;2022-07-30T13:18:35;2.30;;;1.53;;
20649;SDS011;10484;48.736;9.332;2022-07-30T13:21:02;1.63;;;1.37;;
20649;SDS011;10484;48.736;9.332;2022-07-30T13:23:29;1.60;;;1.50;;
20649;SDS011;10484;48.736;9.332;2022-07-30T13:25:55;3.10;;;1.30;;
20649;SDS011;10484;48.736;9.332;2022-07-30T13:28:22;1.47;;;1.37;;
20649;SDS011;10484;48.736;9.332;2022-07-30T13:30:47;2.70;;;1.73;;
20649;SDS011;10484;48.736;9.332;2022-07-30T13:33:13;1.87;;;1.77;;
20649;SDS011;10484;48.736;9.332;2022-07-30T13:35:39;1.90;;;1.70;;
20649;SDS011;10484;48.736;9.332;2022-07-30T13:38:06;2.00;;;1.80;;
20649;SDS011;10484;48.736;9.332;2022-07-30T13:40:32;1.73;;;1.57;;
20649;SDS011;10484;48.736;9.332;2022-07-30T13:42:58;3.30;;;1.43;;
20649;SDS011;10484;48.736;9.332;2022-07-30T13:45:24;1.73;;;1.63;;
20649;SDS011;10484;48.736;9.332;2022-07-30T13:47:50;1.60;;;1.50;;
20649;SDS011;10484;48.736;9.332;2022-07-30T13:50:16;3.57;;;1.93;;
20649;SDS011;10484;48.736;9.332;2022-07-30T13:52:42;1.60;;;1.50;;
20649;SDS011;10484;48.736;9.332;2022-07-30T13:55:07;2.37;;;1.83;;
20649;SDS011;10484;48.736;9.332;2022-07-30T13:57:33;1.40;;;1.30;;
20649;SDS011;10484;48.736;9.332;2022-07-30T13:59:59;2.30;;;1.50;;
20649;SDS011;10484;48.736;9.332;2022-07-30T14:02:24;1.57;;;1.47;;
20649;SDS011;10484;48.736;9.332;2022-07-30T14:04:50;1.37;;;1.27;;
20649;SDS011;10484;48.736;9.332;2022-07-30T14:07:16;2.00;;;1.80;;
20649;SDS011;10484;48.736;9.332;2022-07-30T14:09:41;2.00;;;1.87;;
20649;SDS011;10484;48.736;9.332;2022-07-30T14:12:07;3.50;;;1.90;;
20649;SDS011;10484;48.736;9.332;2022-07-30T14:14:33;3.13;;;2.00;;
20649;SDS011;10484;48.736;9.332;2022-07-30T14:16:58;5.90;;;1.97;;
20649;SDS011;10484;48.736;9.332;2022-07-30T14:19:24;1.90;;;1.80;;
20649;SDS011;10484;48.736;9.332;2022-07-30T14:21:50;2.80;;;2.00;;
20649;SDS011;10484;48.736;9.332;2022-07-30T14:24:17;2.00;;;1.90;;
20649;SDS011;10484;48.736;9.332;2022-07-30T14:26:42;1.70;;;1.60;;
20649;SDS011;10484;48.736;9.332;2022-07-30T14:29:08;3.67;;;1.70;;
20649;SDS011;10484;48.736;9.332;2022-07-30T14:31:34;2.00;;;1.60;;
20649;SDS011;10484;48.736;9.332;2022-07-30T14:34:01;2.10;;;1.47;;
20649;SDS011;10484;48.736;9.332;2022-07-30T14:36:27;2.23;;;1.70;;
20649;SDS011;10484;48.736;9.332;2022-07-30T14:38:57;2.40;;;1.80;;
20649;SDS011;10484;48.736;9.332;2022-07-30T14:41:24;5.13;;;1.53;;
20649;SDS011;10484;48.736;9.332;2022-07-30T14:43:51;1.40;;;1.30;;
20649;SDS011;10484;48.736;9.332;2022-07-30T14:46:17;1.97;;;1.60;;
20649;SDS011;10484;48.736;9.332;2022-07-30T14:48:43;3.23;;;1.97;;
20649;SDS011;10484;48.736;9.332;2022-07-30T14:51:08;5.07;;;2.00;;
20649;SDS011;10484;48.736;9.332;2022-07-30T14:53:34;1.80;;;1.60;;
20649;SDS011;10484;48.736;9.332;2022-07-30T14:56:00;2.37;;;1.70;;
20649;SDS011;10484;48.736;9.332;2022-07-30T14:58:26;2.63;;;1.90;;
20649;SDS011;10484;48.736;9.332;2022-07-30T15:00:51;2.30;;;2.10;;
20649;SDS011;10484;48.736;9.332;2022-07-30T15:03:18;1.60;;;1.50;;
20649;SDS011;10484;48.736;9.332;2022-07-30T15:05:44;3.20;;;2.50;;
20649;SDS011;10484;48.736;9.332;2022-07-30T15:08:09;2.07;;;1.87;;
20649;SDS011;10484;48.736;9.332;2022-07-30T15:10:35;2.90;;;1.50;;
20649;SDS011;10484;48.736;9.332;2022-07-30T15:13:01;1.73;;;1.63;;
20649;SDS011;10484;48.736;9.332;2022-07-30T15:15:27;1.70;;;1.47;;
20649;SDS011;10484;48.736;9.332;2022-07-30T15:17:52;1.73;;;1.63;;
20649;SDS011;10484;48.736;9.332;2022-07-30T15:20:18;2.00;;;1.53;;
20649;SDS011;10484;48.736;9.332;2022-07-30T15:22:44;3.23;;;1.70;;
20649;SDS011;10484;48.736;9.332;2022-07-30T15:25:09;2.70;;;1.60;;